Farmington ASC

2021-09-20 23:40:00

  • imperial
Date Time Air Temperature Relative Humidity Dewpoint Windchill Heat Index Wind Speed Wind Dir. Rain Solar Radiation Soil Temperature
2m 2m 3m 3m 10cm
US/Mountain F % F F F MPH deg in MJ/m^2 F
max avg avg
2021-09-19 23:50:00 59.6 55.6 43.7 59.6 59.6 1.3 1.3 0.9 98.7 155.4 0.00 0.0000000 69.2
2021-09-19 23:55:00 59.5 55.9 43.8 59.5 59.5 3.0 3.0 1.8 161.3 137.7 0.00 0.0000000 69.2
2021-09-20 00:00:00 60.4 54.7 44.1 60.4 60.4 4.7 4.7 3.3 175.7 168.4 0.00 0.0000000 69.1
2021-09-20 00:05:00 61.9 51.8 44.0 61.9 61.9 4.6 7.6 6.1 159.6 170.0 0.00 0.0000000 69.1
2021-09-20 00:10:00 62.2 51.9 44.2 62.2 62.2 7.8 7.8 5.7 146.8 159.8 0.00 0.0000000 69.0
2021-09-20 00:15:00 61.1 53.5 44.1 61.1 61.1 3.5 7.8 5.3 158.6 146.7 0.00 0.0000000 69.0
2021-09-20 00:20:00 61.2 53.4 44.1 61.2 61.2 4.6 5.8 3.8 142.9 146.8 0.00 0.0000000 68.9
2021-09-20 00:25:00 60.5 55.7 44.6 60.5 60.5 5.3 5.8 4.8 145.4 143.3 0.00 0.0000000 68.9
2021-09-20 00:30:00 60.2 56.5 44.7 60.2 60.2 3.3 5.3 4.1 145.0 127.7 0.00 0.0000000 68.8
2021-09-20 00:35:00 60.2 54.5 43.7 60.2 60.2 3.7 4.2 3.3 153.8 137.3 0.00 0.0000000 68.8
2021-09-20 00:40:00 61.5 51.7 43.6 61.5 61.5 5.8 9.0 5.0 146.6 158.4 0.00 0.0000000 68.8
2021-09-20 00:45:00 63.1 50.5 44.4 63.1 63.1 4.9 8.7 6.5 187.4 190.1 0.00 0.0000000 68.7
2021-09-20 00:50:00 62.7 50.2 43.9 62.7 62.7 6.3 8.7 6.3 210.7 193.8 0.00 0.0000000 68.7
2021-09-20 00:55:00 63.0 50.5 44.3 63.0 63.0 7.8 9.7 7.5 183.2 191.7 0.00 0.0000000 68.6
2021-09-20 01:00:00 62.1 52.9 44.7 62.1 62.1 6.3 9.6 7.2 185.9 191.2 0.00 0.0000000 68.6
2021-09-20 01:05:00 62.1 52.3 44.4 62.1 62.1 6.3 8.3 6.6 193.6 179.9 0.00 0.0000000 68.6
2021-09-20 01:10:00 62.2 52.8 44.7 62.2 62.2 6.5 8.7 7.1 180.9 180.8 0.00 0.0000000 68.5
2021-09-20 01:15:00 61.6 54.1 44.9 61.6 61.6 5.6 8.1 6.9 171.9 180.8 0.00 0.0000000 68.5
2021-09-20 01:20:00 60.6 56.1 44.9 60.6 60.6 3.8 7.1 5.4 189.9 184.9 0.00 0.0000000 68.4
2021-09-20 01:25:00 59.5 58.8 45.1 59.5 59.5 3.8 4.9 4.1 216.7 190.9 0.00 0.0000000 68.4
2021-09-20 01:30:00 58.7 60.2 45.0 58.7 58.7 3.5 5.1 4.2 175.0 181.3 0.00 0.0000000 68.3
2021-09-20 01:35:00 58.0 61.3 44.8 58.0 58.0 3.3 4.0 3.2 159.4 165.8 0.00 0.0000000 68.3
2021-09-20 01:40:00 57.9 61.5 44.7 57.9 57.9 4.0 5.1 3.5 143.5 152.7 0.00 0.0000000 68.3
2021-09-20 01:45:00 57.9 59.5 43.9 57.9 57.9 3.3 4.4 3.7 175.4 162.4 0.00 0.0000000 68.2
2021-09-20 01:50:00 58.2 60.3 44.5 58.2 58.2 5.1 5.5 4.7 189.6 176.1 0.00 0.0000000 68.2
2021-09-20 01:55:00 58.7 58.2 44.1 58.7 58.7 6.0 6.9 6.0 173.5 176.7 0.00 0.0000000 68.1
2021-09-20 02:00:00 60.1 56.0 44.3 60.1 60.1 5.3 7.2 5.9 177.8 186.6 0.00 0.0000000 68.1
2021-09-20 02:05:00 59.8 56.7 44.4 59.8 59.8 5.3 6.3 5.4 174.6 175.5 0.00 0.0000000 68.1
2021-09-20 02:10:00 59.6 55.8 43.8 59.6 59.6 4.6 5.8 4.9 168.4 167.7 0.00 0.0000000 68.0
2021-09-20 02:15:00 59.7 57.4 44.6 59.7 59.7 5.1 6.3 5.2 149.6 153.8 0.00 0.0000000 68.0
2021-09-20 02:20:00 59.6 56.9 44.3 59.6 59.6 4.2 7.1 5.6 169.0 152.1 0.00 0.0000000 68.0
2021-09-20 02:25:00 60.7 54.7 44.3 60.7 60.7 3.8 5.8 4.6 186.6 182.8 0.00 0.0000000 67.9
2021-09-20 02:30:00 59.8 58.0 45.0 59.8 59.8 2.2 4.4 3.4 192.3 197.3 0.00 0.0000000 67.9
2021-09-20 02:35:00 58.6 60.1 44.8 58.6 58.6 1.2 3.0 1.8 199.0 187.7 0.00 0.0000000 67.9
2021-09-20 02:40:00 57.7 62.3 44.9 57.7 57.7 4.7 4.7 3.1 211.1 193.9 0.00 0.0000000 67.8
2021-09-20 02:45:00 60.8 53.1 43.6 60.8 60.8 8.8 8.8 5.6 246.9 244.6 0.00 0.0000000 67.8
2021-09-20 02:50:00 63.4 48.8 43.8 63.4 63.4 7.1 9.6 8.3 238.3 253.2 0.00 0.0000000 67.8
2021-09-20 02:55:00 63.6 47.8 43.5 63.6 63.6 9.6 10.1 8.6 268.1 247.6 0.00 0.0000000 67.8
2021-09-20 03:00:00 64.1 47.2 43.5 64.1 64.1 8.5 10.3 8.6 255.2 254.5 0.00 0.0000000 67.7
2021-09-20 03:05:00 64.3 46.4 43.4 64.3 64.3 10.3 10.6 8.8 268.9 254.5 0.00 0.0000000 67.7
2021-09-20 03:10:00 64.5 45.4 43.0 64.5 64.5 9.4 11.7 9.0 261.8 251.9 0.00 0.0000000 67.7
2021-09-20 03:15:00 64.3 46.4 43.3 64.3 64.3 7.4 11.7 8.2 248.5 249.2 0.00 0.0000000 67.6
2021-09-20 03:20:00 63.2 48.1 43.2 63.2 63.2 7.2 10.1 7.3 230.1 244.1 0.00 0.0000000 67.6
2021-09-20 03:25:00 62.5 50.0 43.6 62.5 62.5 8.3 8.8 7.1 226.1 234.1 0.00 0.0000000 67.6
2021-09-20 03:30:00 62.1 51.4 44.0 62.1 62.1 6.0 8.5 7.3 228.1 227.6 0.00 0.0000000 67.6
2021-09-20 03:35:00 62.3 51.0 43.9 62.3 62.3 6.5 8.5 6.8 221.7 228.8 0.00 0.0000000 67.5
2021-09-20 03:40:00 61.6 51.7 43.7 61.6 61.6 5.5 7.1 5.7 230.9 228.7 0.00 0.0000000 67.5
2021-09-20 03:45:00 61.0 53.0 43.8 61.0 61.0 2.8 6.2 4.0 227.9 229.3 0.00 0.0000000 67.5
2021-09-20 03:50:00 60.4 54.8 44.1 60.4 60.4 3.1 4.9 3.0 8.2 298.6 0.00 0.0000000 67.4
2021-09-20 03:55:00 61.1 51.6 43.2 61.1 61.1 5.5 11.0 5.5 300.1 354.3 0.00 0.0000000 67.4
2021-09-20 04:00:00 62.7 50.6 44.1 62.7 62.7 3.3 7.2 4.1 319.5 274.6 0.00 0.0000000 67.4
2021-09-20 04:05:00 61.3 53.0 44.0 61.3 61.3 3.1 3.8 3.0 344.2 333.9 0.00 0.0000000 67.4
2021-09-20 04:10:00 61.4 52.1 43.6 61.4 61.4 4.0 4.0 2.1 308.6 300.3 0.00 0.0000000 67.4
2021-09-20 04:15:00 61.6 51.9 43.8 61.6 61.6 3.0 4.9 2.9 243.2 275.9 0.00 0.0000000 67.3
2021-09-20 04:20:00 61.9 50.1 43.1 61.9 61.9 3.1 3.8 3.1 217.4 234.3 0.00 0.0000000 67.3
2021-09-20 04:25:00 59.7 54.8 43.4 59.7 59.7 4.7 4.9 3.7 189.0 202.6 0.00 0.0000000 67.3
2021-09-20 04:30:00 58.5 57.0 43.3 58.5 58.5 3.3 4.6 3.9 237.7 204.4 0.00 0.0000000 67.2
2021-09-20 04:35:00 58.2 57.4 43.2 58.2 58.2 1.0 3.0 1.7 340.4 311.0 0.00 0.0000000 67.2
2021-09-20 04:40:00 58.5 56.2 42.9 58.5 58.5 1.0 2.1 1.4 206.7 212.9 0.00 0.0000000 67.1
2021-09-20 04:45:00 58.4 58.2 43.7 58.4 58.4 2.1 2.2 1.3 146.0 175.4 0.00 0.0000000 67.1
2021-09-20 04:50:00 57.4 60.7 43.9 57.4 57.4 2.2 2.8 2.0 126.1 140.6 0.00 0.0000000 67.1
2021-09-20 04:55:00 57.0 61.9 44.1 57.0 57.0 1.7 2.4 1.9 69.1 106.9 0.00 0.0000000 67.1
2021-09-20 05:00:00 56.5 60.7 43.1 56.5 56.5 2.6 2.6 2.1 99.1 101.3 0.00 0.0000000 67.0
2021-09-20 05:05:00 56.6 60.3 43.0 56.6 56.6 3.0 3.0 2.4 109.2 107.3 0.00 0.0000000 67.0
2021-09-20 05:10:00 55.9 60.9 42.6 55.9 55.9 1.9 2.8 2.0 117.1 94.3 0.00 0.0000000 66.9
2021-09-20 05:15:00 56.2 62.6 43.6 56.2 56.2 2.8 3.0 2.5 111.5 127.4 0.00 0.0000000 66.9
2021-09-20 05:20:00 55.9 61.6 42.9 55.9 55.9 1.9 3.0 2.3 160.5 129.3 0.00 0.0000000 66.9
2021-09-20 05:25:00 55.3 64.2 43.4 55.3 55.3 1.9 2.4 1.9 130.2 123.7 0.00 0.0000000 66.8
2021-09-20 05:30:00 54.9 64.6 43.2 54.9 54.9 0.8 2.1 1.2 73.2 96.1 0.00 0.0000000 66.8
2021-09-20 05:35:00 55.0 63.1 42.7 55.0 55.0 1.7 2.2 1.5 85.1 104.2 0.00 0.0000000 66.8
2021-09-20 05:40:00 55.4 61.8 42.5 55.4 55.4 2.2 2.2 1.7 121.0 107.0 0.00 0.0000000 66.7
2021-09-20 05:45:00 55.6 61.5 42.6 55.6 55.6 1.9 2.1 1.8 192.5 136.9 0.00 0.0000000 66.7
2021-09-20 05:50:00 55.2 62.6 42.7 55.2 55.2 1.2 2.1 1.5 72.9 126.3 0.00 0.0000000 66.6
2021-09-20 05:55:00 54.2 64.7 42.5 54.2 54.2 1.5 1.9 1.3 62.9 76.1 0.00 0.0000000 66.6
2021-09-20 06:00:00 54.3 63.5 42.2 54.3 54.3 1.2 2.4 1.5 103.0 83.1 0.00 0.0000000 66.5
2021-09-20 06:05:00 55.3 59.9 41.6 55.3 55.3 1.3 1.5 1.3 127.3 121.1 0.00 0.0000000 66.5
2021-09-20 06:10:00 55.5 59.5 41.6 55.5 55.5 2.1 2.6 1.8 100.2 108.0 0.00 0.0000000 66.5
2021-09-20 06:15:00 55.6 59.0 41.5 55.6 55.6 1.9 2.2 1.9 126.0 116.4 0.00 0.0000000 66.4
2021-09-20 06:20:00 55.0 60.0 41.3 55.0 55.0 2.8 3.0 2.2 21.7 83.8 0.00 0.0000000 66.4
2021-09-20 06:25:00 55.0 60.1 41.4 55.0 55.0 1.5 2.6 1.6 61.4 64.1 0.00 0.0000000 66.3
2021-09-20 06:30:00 54.6 60.6 41.3 54.6 54.6 2.1 2.1 1.7 62.2 52.4 0.00 0.0000000 66.3
2021-09-20 06:35:00 54.8 60.2 41.2 54.8 54.8 1.0 2.1 1.5 138.4 106.9 0.00 0.0000000 66.3
2021-09-20 06:40:00 54.2 61.3 41.1 54.2 54.2 1.2 1.5 1.0 148.2 148.4 0.00 0.0000000 66.2
2021-09-20 06:45:00 54.0 62.5 41.4 54.0 54.0 2.1 2.2 0.8 173.1 158.8 0.00 0.0010000 66.2
2021-09-20 06:50:00 53.7 64.9 42.1 53.7 53.7 2.2 2.4 2.1 170.9 165.6 0.00 0.0010000 66.1
2021-09-20 06:55:00 52.8 65.5 41.6 52.8 52.8 1.5 2.1 1.4 167.4 174.8 0.00 0.0020000 66.1
2021-09-20 07:00:00 52.3 66.2 41.3 52.3 52.3 1.7 2.1 1.7 195.5 169.8 0.00 0.0040000 66.1
2021-09-20 07:05:00 52.0 67.5 41.6 52.0 52.0 1.2 2.8 1.9 131.5 149.8 0.00 0.0060000 66.0
2021-09-20 07:10:00 51.7 67.6 41.4 51.7 51.7 1.0 1.7 1.2 53.0 55.7 0.00 0.0090000 66.0
2021-09-20 07:15:00 52.4 66.9 41.7 52.4 52.4 1.5 2.6 1.8 80.2 114.7 0.00 0.0110000 65.9
2021-09-20 07:20:00 52.1 68.1 41.9 52.1 52.1 2.8 3.0 2.4 119.7 104.1 0.00 0.0140000 65.9
2021-09-20 07:25:00 52.0 68.5 41.9 52.0 52.0 1.9 3.1 2.3 25.9 108.9 0.00 0.0160000 65.8
2021-09-20 07:30:00 52.1 67.3 41.5 52.1 52.1 1.2 2.4 1.8 79.5 65.5 0.00 0.0180000 65.8
2021-09-20 07:35:00 52.1 67.7 41.7 52.1 52.1 2.1 2.2 1.7 117.1 87.3 0.00 0.0200000 65.8
2021-09-20 07:40:00 52.4 69.6 42.8 52.4 52.4 4.6 5.1 3.4 130.1 133.1 0.00 0.0230000 65.7
2021-09-20 07:45:00 53.2 69.0 43.3 53.2 53.2 3.8 4.9 4.2 131.6 129.7 0.00 0.0320000 65.7
2021-09-20 07:50:00 53.5 68.3 43.4 53.5 53.5 4.2 4.6 4.0 138.3 131.7 0.00 0.1060000 65.6
2021-09-20 07:55:00 55.1 65.6 43.8 55.1 55.1 4.0 5.3 4.5 138.9 138.9 0.00 0.1280000 65.6
2021-09-20 08:00:00 56.2 62.0 43.3 56.2 56.2 3.8 5.5 4.6 142.1 142.6 0.00 0.1490000 65.6
2021-09-20 08:05:00 57.3 59.3 43.2 57.3 57.3 4.6 4.9 3.8 158.7 161.0 0.00 0.1640000 65.6
2021-09-20 08:10:00 58.2 57.4 43.2 58.2 58.2 4.7 6.2 4.9 183.3 180.9 0.00 0.1780000 65.5
2021-09-20 08:15:00 58.6 57.9 43.8 58.6 58.6 4.6 6.5 4.6 184.5 191.2 0.00 0.1930000 65.5
2021-09-20 08:20:00 59.4 56.5 44.0 59.4 59.4 4.2 5.1 4.1 198.9 202.2 0.00 0.2090000 65.5
2021-09-20 08:25:00 60.8 52.7 43.4 60.8 60.8 5.3 6.3 4.2 230.2 217.3 0.00 0.2240000 65.5
2021-09-20 08:30:00 61.4 52.4 43.9 61.4 61.4 4.0 6.2 4.9 222.6 225.0 0.00 0.2410000 65.5
2021-09-20 08:35:00 61.7 54.5 45.1 61.7 61.7 4.7 6.7 5.0 224.2 225.7 0.00 0.2570000 65.4
2021-09-20 08:40:00 61.5 59.4 47.3 61.5 61.5 5.6 8.0 5.3 290.3 242.2 0.00 0.2710000 65.4
2021-09-20 08:45:00 60.7 60.7 47.0 60.7 60.7 4.0 6.7 4.9 255.7 268.6 0.00 0.2850000 65.4
2021-09-20 08:50:00 60.8 60.2 46.9 60.8 60.8 4.9 7.1 5.5 285.6 262.7 0.00 0.3010000 65.4
2021-09-20 08:55:00 61.0 58.2 46.3 61.0 61.0 7.8 9.2 6.7 265.8 257.7 0.00 0.3150000 65.4
2021-09-20 09:00:00 61.1 64.8 49.2 61.1 61.1 4.9 9.6 6.5 270.5 268.5 0.00 0.3250000 65.4
2021-09-20 09:05:00 61.0 63.2 48.4 61.0 61.0 5.3 7.2 5.4 238.6 271.1 0.00 0.3450000 65.4
2021-09-20 09:10:00 60.8 66.8 49.7 60.8 60.8 3.3 9.6 6.0 255.8 275.5 0.00 0.3630000 65.5
2021-09-20 09:15:00 61.1 63.5 48.6 61.1 61.1 4.9 7.1 5.0 281.2 273.5 0.00 0.3700000 65.5
2021-09-20 09:20:00 61.1 56.5 45.5 61.1 61.1 4.6 7.2 5.2 269.3 281.5 0.00 0.3810000 65.5
2021-09-20 09:25:00 61.5 62.8 48.7 61.5 61.5 4.2 7.6 5.0 260.9 274.4 0.00 0.4120000 65.5
2021-09-20 09:30:00 61.5 50.7 43.1 61.5 61.5 6.7 7.6 6.3 258.4 270.9 0.00 0.4330000 65.6
2021-09-20 09:35:00 61.5 54.7 45.0 61.5 61.5 6.5 8.8 6.4 295.8 282.1 0.00 0.2950000 65.6
2021-09-20 09:40:00 61.9 57.2 46.6 61.9 61.9 4.9 7.1 5.8 271.3 284.9 0.00 0.4700000 65.7
2021-09-20 09:45:00 61.8 46.7 41.2 61.8 61.8 7.2 10.5 7.1 265.5 278.1 0.00 0.4110000 65.7
2021-09-20 09:50:00 62.3 49.1 43.0 62.3 62.3 5.3 9.7 6.4 272.5 275.8 0.00 0.4780000 65.8
2021-09-20 09:55:00 62.5 45.9 41.4 62.5 62.5 5.6 8.3 6.1 287.8 284.5 0.00 0.5200000 65.8
2021-09-20 10:00:00 62.9 41.0 38.8 62.9 62.9 8.8 9.2 6.8 297.8 281.2 0.00 0.5330000 65.9
2021-09-20 10:05:00 63.1 43.3 40.5 63.1 63.1 5.6 9.4 6.0 321.9 295.5 0.00 0.5420000 65.9
2021-09-20 10:10:00 63.7 42.6 40.5 63.7 63.7 4.7 10.5 6.6 290.0 293.2 0.00 0.5680000 66.0
2021-09-20 10:15:00 63.6 48.3 43.7 63.6 63.6 5.8 10.8 7.1 284.9 283.4 0.00 0.4750000 66.1
2021-09-20 10:20:00 63.6 40.6 39.3 63.6 63.6 8.1 8.8 6.4 306.7 279.6 0.00 0.5990000 66.1
2021-09-20 10:25:00 63.7 41.2 39.7 63.7 63.7 9.6 11.0 7.4 255.2 283.8 0.00 0.5340000 66.2
2021-09-20 10:30:00 63.8 38.6 38.1 63.8 63.8 13.5 13.5 8.7 298.5 285.3 0.00 0.6400000 66.3
2021-09-20 10:35:00 64.7 41.1 40.5 64.7 64.7 6.7 11.9 7.9 293.7 289.3 0.00 0.6450000 66.4
2021-09-20 10:40:00 63.9 42.5 40.7 63.9 63.9 8.5 12.8 8.4 261.8 276.7 0.00 0.3200000 66.4
2021-09-20 10:45:00 64.4 35.9 36.8 64.4 64.4 7.4 11.3 8.8 295.2 285.3 0.00 0.6780000 66.5
2021-09-20 10:50:00 64.6 41.3 40.5 64.6 64.6 8.0 10.8 8.4 298.9 282.3 0.00 0.6830000 66.6
2021-09-20 10:55:00 65.8 39.0 40.1 65.8 65.8 7.1 10.3 7.4 269.3 292.9 0.00 0.7610000 66.7
2021-09-20 11:00:00 65.7 40.4 40.9 65.7 65.7 11.5 11.5 7.9 258.7 278.1 0.00 0.7410000 66.8
2021-09-20 11:05:00 65.3 38.7 39.5 65.3 65.3 11.2 13.3 9.0 262.5 284.8 0.00 0.6920000 66.9
2021-09-20 11:10:00 66.4 30.2 34.2 66.4 66.4 10.1 12.4 8.4 318.4 288.0 0.00 0.7270000 67.0
2021-09-20 11:15:00 67.6 40.0 42.4 67.6 67.6 6.7 10.1 7.3 233.7 286.6 0.00 0.7040000 67.0
2021-09-20 11:20:00 68.0 33.3 38.1 68.0 68.0 7.1 10.8 8.4 275.3 302.1 0.00 0.7770000 67.2
2021-09-20 11:25:00 68.4 29.2 35.0 68.4 68.4 7.8 12.2 9.1 294.3 275.6 0.00 0.8220000 67.2
2021-09-20 11:30:00 68.5 29.8 35.7 68.5 68.5 8.8 11.7 9.1 287.5 295.5 0.00 0.8400000 67.4
2021-09-20 11:35:00 68.4 31.5 37.0 68.4 68.4 7.6 15.5 9.5 278.6 294.1 0.00 0.8880000 67.4
2021-09-20 11:40:00 67.4 30.8 35.5 67.4 67.4 9.7 13.1 9.5 295.8 273.2 0.00 0.5630000 67.6
2021-09-20 11:45:00 66.9 31.0 35.2 66.9 66.9 6.3 13.7 9.0 330.5 291.1 0.00 0.4900000 67.7
2021-09-20 11:50:00 67.4 30.9 35.6 67.4 67.4 7.8 13.1 8.1 261.9 279.8 0.00 0.5220000 67.8
2021-09-20 11:55:00 67.1 28.3 33.2 67.1 67.1 9.7 13.5 8.4 253.3 283.3 0.00 0.5030000 67.9
2021-09-20 12:00:00 67.3 29.8 34.6 67.3 67.3 11.3 12.2 8.3 260.8 280.5 0.00 0.7710000 68.0
2021-09-20 12:05:00 68.6 29.6 35.6 68.6 68.6 11.0 13.5 9.2 281.4 282.1 0.00 0.8230000 68.1
2021-09-20 12:10:00 68.6 31.5 37.2 68.6 68.6 8.5 11.5 8.9 305.6 285.2 0.00 0.6870000 68.2
2021-09-20 12:15:00 67.8 25.5 31.2 67.8 67.8 16.9 19.0 10.9 318.6 280.3 0.00 0.8450000 68.3
2021-09-20 12:20:00 68.0 27.3 33.0 68.0 68.0 9.6 13.3 10.1 298.7 292.9 0.00 0.6620000 68.4
2021-09-20 12:25:00 68.0 27.7 33.5 68.0 68.0 8.0 13.9 9.8 261.4 289.3 0.00 0.8000000 68.5
2021-09-20 12:30:00 68.3 28.8 34.7 68.3 68.3 9.9 15.5 10.9 286.8 286.2 0.00 0.8930000 68.6
2021-09-20 12:35:00 69.2 25.7 32.5 69.2 69.2 12.6 16.7 11.2 274.9 283.2 0.00 0.8350000 68.7
2021-09-20 12:40:00 68.6 26.7 33.0 68.6 68.6 11.5 15.3 10.8 320.3 280.0 0.00 0.4610000 68.7
2021-09-20 12:45:00 68.9 25.3 31.9 68.9 68.9 11.0 11.7 8.5 283.4 293.9 0.00 0.8710000 68.8
2021-09-20 12:50:00 70.1 24.0 31.7 70.1 70.1 9.6 14.9 9.7 279.1 296.3 0.00 0.8400000 68.9
2021-09-20 12:55:00 69.7 25.3 32.6 69.7 69.7 13.7 17.8 12.0 334.9 286.9 0.00 0.8180000 69.0
2021-09-20 13:00:00 69.6 25.4 32.6 69.6 69.6 9.9 15.3 10.1 302.2 293.0 0.00 0.3820000 69.1
2021-09-20 13:05:00 69.1 24.7 31.5 69.1 69.1 11.5 14.7 10.7 281.8 296.8 0.00 0.8090000 69.2
2021-09-20 13:10:00 69.5 24.5 31.6 69.5 69.5 11.5 14.7 11.0 293.8 282.3 0.00 0.8680000 69.3
2021-09-20 13:15:00 69.0 24.2 30.9 69.0 69.0 9.9 14.6 10.6 316.7 292.3 0.00 0.8490000 69.4
2021-09-20 13:20:00 70.1 28.8 36.2 70.1 70.1 10.1 14.4 10.3 297.5 302.9 0.00 0.8570000 69.5
2021-09-20 13:25:00 70.6 27.2 35.2 70.6 70.6 7.8 16.7 10.2 279.7 284.7 0.00 0.6780000 69.6
2021-09-20 13:30:00 70.2 25.8 33.5 70.2 70.2 7.2 16.9 11.3 296.0 279.4 0.00 0.7250000 69.7
2021-09-20 13:35:00 70.1 25.3 32.9 70.1 70.1 10.1 12.8 9.8 296.3 288.8 0.00 0.8470000 69.8
2021-09-20 13:40:00 69.9 26.7 34.2 69.9 69.9 6.0 14.9 10.9 260.9 288.9 0.00 0.6870000 69.8
2021-09-20 13:45:00 69.7 26.1 33.4 69.7 69.7 9.2 15.6 11.2 277.6 291.2 0.00 0.8700000 70.0
2021-09-20 13:50:00 70.1 25.2 32.8 70.1 70.1 10.8 16.2 11.2 345.0 291.3 0.00 0.6590000 70.0
2021-09-20 13:55:00 70.5 24.9 32.9 70.5 70.5 11.2 15.1 10.2 308.7 308.0 0.00 0.6880000 70.1
2021-09-20 14:00:00 69.5 26.0 33.1 69.5 69.5 9.0 16.9 11.2 281.0 280.8 0.00 0.7090000 70.2
2021-09-20 14:05:00 71.1 23.1 31.5 71.1 71.1 9.0 14.0 9.2 280.5 283.8 0.00 0.7510000 70.3
2021-09-20 14:10:00 70.2 23.9 31.6 70.2 70.2 9.9 16.2 10.6 290.8 287.3 0.00 0.2840000 70.4
2021-09-20 14:15:00 69.8 24.3 31.7 69.8 69.8 16.5 19.2 10.5 288.4 306.5 0.00 0.3050000 70.4
2021-09-20 14:20:00 69.6 25.7 32.9 69.6 69.6 10.5 16.0 11.3 261.1 296.4 0.00 0.8500000 70.5
2021-09-20 14:25:00 71.4 27.6 36.2 71.4 71.4 7.2 14.0 9.6 325.0 294.0 0.00 0.7730000 70.6
2021-09-20 14:30:00 71.9 22.7 31.7 71.9 71.9 14.4 14.4 9.0 321.4 309.9 0.00 0.6210000 70.6
2021-09-20 14:35:00 69.9 23.6 31.1 69.9 69.9 9.0 15.1 10.1 1.6 312.1 0.00 0.1850000 70.7
2021-09-20 14:40:00 70.0 29.1 36.3 70.0 70.0 6.9 14.2 10.2 287.4 305.6 0.00 0.6810000 70.7
2021-09-20 14:45:00 70.9 24.7 33.0 70.9 70.9 10.6 15.5 11.0 266.8 285.2 0.00 0.7370000 70.8
2021-09-20 14:50:00 71.2 26.5 35.0 71.2 71.2 7.8 14.7 11.1 279.7 289.5 0.00 0.7000000 70.8
2021-09-20 14:55:00 71.2 23.1 31.6 71.2 71.2 11.5 15.8 11.4 283.7 293.9 0.00 0.6900000 70.9
2021-09-20 15:00:00 71.5 26.4 35.2 71.5 71.5 10.5 17.2 10.5 283.9 281.8 0.00 0.6840000 70.9
2021-09-20 15:05:00 71.3 24.9 33.6 71.3 71.3 6.5 15.6 11.9 288.3 285.0 0.00 0.6350000 71.0
2021-09-20 15:10:00 71.5 22.0 30.7 71.5 71.5 11.5 16.5 10.8 324.0 299.7 0.00 0.6870000 71.0
2021-09-20 15:15:00 71.9 22.0 31.0 71.9 71.9 14.4 14.4 10.4 310.0 301.9 0.00 0.6830000 71.1
2021-09-20 15:20:00 71.9 24.0 33.1 71.9 71.9 10.3 15.6 10.9 298.7 305.3 0.00 0.5950000 71.1
2021-09-20 15:25:00 71.2 25.1 33.7 71.2 71.2 10.1 17.4 11.0 317.4 304.3 0.00 0.5490000 71.2
2021-09-20 15:30:00 72.2 21.6 30.8 72.2 72.2 10.6 13.7 10.3 301.1 296.7 0.00 0.5220000 71.2
2021-09-20 15:35:00 71.9 24.9 34.1 71.9 71.9 7.1 13.9 9.9 290.0 304.6 0.00 0.6180000 71.2
2021-09-20 15:40:00 72.1 23.9 33.1 72.1 72.1 10.1 17.2 11.6 290.3 292.4 0.00 0.5990000 71.3
2021-09-20 15:45:00 72.3 22.5 31.9 72.3 72.3 10.5 14.7 10.2 296.2 306.9 0.00 0.5880000 71.3
2021-09-20 15:50:00 72.1 23.6 32.8 72.1 72.1 8.3 14.7 10.1 310.4 295.1 0.00 0.5720000 71.3
2021-09-20 15:55:00 72.8 23.6 33.4 72.8 72.8 7.6 14.4 9.6 327.5 295.7 0.00 0.5530000 71.3
2021-09-20 16:00:00 72.3 24.3 33.8 72.3 72.3 6.9 18.5 10.9 310.6 299.7 0.00 0.5410000 71.3
2021-09-20 16:05:00 72.4 22.4 31.8 72.4 72.4 9.4 13.5 10.4 325.1 312.0 0.00 0.5290000 71.4
2021-09-20 16:10:00 72.4 22.0 31.3 72.4 72.4 10.1 15.8 11.5 314.8 304.0 0.00 0.5160000 71.4
2021-09-20 16:15:00 72.1 24.9 34.3 72.1 72.1 8.0 16.4 11.6 303.1 300.7 0.00 0.5020000 71.4
2021-09-20 16:20:00 72.6 20.3 29.6 72.6 72.6 15.5 17.2 10.6 334.9 300.2 0.00 0.4910000 71.4
2021-09-20 16:25:00 72.1 21.5 30.5 72.1 72.1 8.3 17.4 11.7 305.7 296.3 0.00 0.4810000 71.4
2021-09-20 16:30:00 72.8 20.4 29.8 72.8 72.8 12.1 15.6 10.7 309.4 303.4 0.00 0.4650000 71.4
2021-09-20 16:35:00 71.9 21.5 30.4 71.9 71.9 10.6 14.9 11.7 313.2 303.7 0.00 0.4470000 71.4
2021-09-20 16:40:00 72.3 21.0 30.1 72.3 72.3 13.3 17.1 11.3 3.8 309.7 0.00 0.4340000 71.4
2021-09-20 16:45:00 72.4 21.1 30.4 72.4 72.4 8.7 17.6 10.7 333.5 293.5 0.00 0.4230000 71.5
2021-09-20 16:50:00 72.4 20.4 29.5 72.4 72.4 11.5 15.6 11.6 311.0 311.0 0.00 0.4070000 71.4
2021-09-20 16:55:00 72.3 20.2 29.2 72.3 72.3 7.6 20.6 13.7 295.1 307.0 0.00 0.3960000 71.4
2021-09-20 17:00:00 72.5 18.1 26.7 72.5 72.5 10.1 15.1 11.8 317.4 305.3 0.00 0.3790000 71.4
2021-09-20 17:05:00 72.5 17.9 26.5 72.5 72.5 9.7 17.4 10.4 325.1 291.2 0.00 0.3670000 71.4
2021-09-20 17:10:00 72.2 17.3 25.4 72.2 72.2 13.0 17.1 10.8 334.8 294.1 0.00 0.3510000 71.4
2021-09-20 17:15:00 72.2 18.7 27.3 72.2 72.2 9.6 14.9 10.0 294.5 303.8 0.00 0.3360000 71.4
2021-09-20 17:20:00 71.9 18.3 26.5 71.9 71.9 8.0 14.4 11.2 305.2 298.4 0.00 0.3180000 71.4
2021-09-20 17:25:00 71.7 16.9 24.4 71.7 71.7 12.1 12.4 9.6 306.3 300.0 0.00 0.3050000 71.3
2021-09-20 17:30:00 72.0 16.7 24.3 72.0 72.0 9.0 14.0 9.2 283.8 295.3 0.00 0.2930000 71.3
2021-09-20 17:35:00 71.7 17.5 25.3 71.7 71.7 8.3 16.2 10.8 326.9 293.6 0.00 0.2790000 71.3
2021-09-20 17:40:00 71.6 17.8 25.6 71.6 71.6 12.1 18.0 10.8 278.9 291.5 0.00 0.2590000 71.2
2021-09-20 17:45:00 71.4 17.3 24.7 71.4 71.4 9.0 16.9 10.4 294.1 284.2 0.00 0.2430000 71.2
2021-09-20 17:50:00 71.2 17.0 24.1 71.2 71.2 8.8 12.6 8.9 324.0 299.4 0.00 0.2270000 71.2
2021-09-20 17:55:00 70.8 16.3 22.8 70.8 70.8 7.1 11.7 9.6 309.5 290.4 0.00 0.2090000 71.2
2021-09-20 18:00:00 70.5 15.6 21.5 70.5 70.5 9.0 14.7 9.3 325.2 296.2 0.00 0.1920000 71.1
2021-09-20 18:05:00 70.7 16.6 23.2 70.7 70.7 10.5 13.5 8.4 268.7 299.7 0.00 0.1780000 71.0
2021-09-20 18:10:00 70.4 18.2 25.0 70.4 70.4 7.1 13.7 8.6 317.2 305.6 0.00 0.1620000 71.0
2021-09-20 18:15:00 70.1 16.4 22.4 70.1 70.1 8.5 13.3 8.4 274.6 291.0 0.00 0.1480000 71.0
2021-09-20 18:20:00 69.9 18.4 24.9 69.9 69.9 5.8 11.0 7.8 278.0 286.0 0.00 0.1340000 70.9
2021-09-20 18:25:00 69.6 16.3 21.8 69.6 69.6 13.1 13.1 8.9 296.4 298.4 0.00 0.1180000 70.9
2021-09-20 18:30:00 69.5 18.2 24.3 69.5 69.5 4.9 11.9 8.6 299.4 301.5 0.00 0.0990000 70.8
2021-09-20 18:35:00 69.1 18.8 24.8 69.1 69.1 5.5 11.9 7.0 334.1 287.5 0.00 0.0820000 70.8
2021-09-20 18:40:00 68.7 17.9 23.3 68.7 68.7 6.7 8.7 6.1 281.5 291.1 0.00 0.0670000 70.7
2021-09-20 18:45:00 68.5 18.2 23.6 68.5 68.5 7.1 8.8 6.4 267.5 295.3 0.00 0.0500000 70.7
2021-09-20 18:50:00 68.0 19.6 24.9 68.0 68.0 4.0 9.0 5.9 304.5 292.5 0.00 0.0370000 70.6
2021-09-20 18:55:00 67.5 19.2 24.0 67.5 67.5 5.6 9.9 6.2 295.5 291.5 0.00 0.0270000 70.5
2021-09-20 19:00:00 67.1 18.0 22.2 67.1 67.1 7.8 8.7 5.2 286.5 293.2 0.00 0.0160000 70.5
2021-09-20 19:05:00 66.4 19.6 23.6 66.4 66.4 6.2 8.3 5.4 312.4 296.0 0.00 0.0100000 70.4
2021-09-20 19:10:00 65.8 18.1 21.2 65.8 65.8 7.1 7.1 4.8 306.9 298.2 0.00 0.0060000 70.4
2021-09-20 19:15:00 65.4 18.8 21.8 65.4 65.4 3.8 7.2 4.4 275.5 291.2 0.00 0.0040000 70.3
2021-09-20 19:20:00 64.6 21.1 23.9 64.6 64.6 4.4 5.3 3.9 272.8 288.4 0.00 0.0020000 70.2
2021-09-20 19:25:00 63.7 21.3 23.3 63.7 63.7 4.4 5.8 4.2 288.2 279.0 0.00 0.0010000 70.2
2021-09-20 19:30:00 63.4 19.8 21.3 63.4 63.4 4.4 6.2 4.2 263.7 286.9 0.00 0.0010000 70.1
2021-09-20 19:35:00 63.2 20.3 21.9 63.2 63.2 4.2 4.9 3.8 279.4 291.5 0.00 0.0000000 70.0
2021-09-20 19:40:00 62.5 22.3 23.5 62.5 62.5 4.4 5.3 4.0 302.5 281.8 0.00 0.0000000 69.9
2021-09-20 19:45:00 61.8 23.0 23.6 61.8 61.8 3.0 4.2 3.2 292.4 281.3 0.00 0.0000000 69.9
2021-09-20 19:50:00 61.4 22.3 22.5 61.4 61.4 3.3 4.0 3.5 271.8 278.9 0.00 0.0000000 69.8
2021-09-20 19:55:00 60.9 22.2 22.0 60.9 60.9 3.0 4.7 3.1 267.4 275.9 0.00 0.0000000 69.7
2021-09-20 20:00:00 60.4 22.8 22.2 60.4 60.4 3.3 3.8 3.0 286.1 271.4 0.00 0.0000000 69.6
2021-09-20 20:05:00 60.8 23.4 23.2 60.8 60.8 3.5 5.1 3.7 266.4 281.1 0.00 0.0000000 69.5
2021-09-20 20:10:00 61.2 21.1 20.9 61.2 61.2 3.3 6.9 4.0 253.6 280.8 0.00 0.0000000 69.4
2021-09-20 20:15:00 61.3 20.4 20.4 61.3 61.3 2.6 3.7 2.6 299.1 272.2 0.00 0.0000000 69.4
2021-09-20 20:20:00 61.2 21.0 21.0 61.2 61.2 2.4 4.7 3.1 293.3 263.3 0.00 0.0000000 69.3
2021-09-20 20:25:00 59.9 20.9 19.7 59.9 59.9 3.0 4.9 2.5 231.8 252.1 0.00 0.0000000 69.1
2021-09-20 20:30:00 58.6 22.0 19.9 58.6 58.6 2.8 3.1 2.7 237.7 239.2 0.00 0.0000000 69.1
2021-09-20 20:35:00 58.2 22.0 19.5 58.2 58.2 1.9 3.0 2.0 172.7 214.9 0.00 0.0000000 69.0
2021-09-20 20:40:00 57.3 24.9 21.6 57.3 57.3 2.1 2.4 1.9 127.4 146.4 0.00 0.0000000 68.9
2021-09-20 20:45:00 56.8 25.2 21.5 56.8 56.8 2.1 3.5 2.0 157.4 153.1 0.00 0.0000000 68.8
2021-09-20 20:50:00 56.5 27.6 23.4 56.5 56.5 1.9 3.0 2.4 155.7 152.6 0.00 0.0000000 68.7
2021-09-20 20:55:00 56.9 24.2 20.6 56.9 56.9 1.9 2.8 2.0 253.2 159.9 0.00 0.0000000 68.6
2021-09-20 21:00:00 57.3 23.8 20.6 57.3 57.3 4.4 5.1 3.2 256.7 236.9 0.00 0.0000000 68.6
2021-09-20 21:05:00 56.8 23.5 19.9 56.8 56.8 3.3 4.4 3.6 264.2 247.9 0.00 0.0000000 68.5
2021-09-20 21:10:00 57.0 25.7 22.1 57.0 57.0 3.1 4.7 3.3 269.5 253.5 0.00 0.0000000 68.4
2021-09-20 21:15:00 57.4 24.7 21.6 57.4 57.4 4.0 4.7 3.8 284.0 256.5 0.00 0.0000000 68.3
2021-09-20 21:20:00 58.0 24.2 21.6 58.0 58.0 3.5 5.1 3.8 266.5 259.6 0.00 0.0000000 68.2
2021-09-20 21:25:00 58.0 23.8 21.1 58.0 58.0 3.7 5.6 4.0 282.3 267.2 0.00 0.0000000 68.1
2021-09-20 21:30:00 58.4 21.2 18.9 58.4 58.4 3.0 5.3 3.7 317.6 284.3 0.00 0.0000000 68.1
2021-09-20 21:35:00 58.3 20.8 18.3 58.3 58.3 3.7 5.6 3.8 325.6 328.2 0.00 0.0000000 68.0
2021-09-20 21:40:00 59.2 20.4 18.6 59.2 59.2 4.4 6.7 4.4 296.4 290.3 0.00 0.0000000 67.9
2021-09-20 21:45:00 58.7 19.7 17.3 58.7 58.7 4.6 5.6 4.0 286.5 285.1 0.00 0.0000000 67.8
2021-09-20 21:50:00 59.0 19.8 17.7 59.0 59.0 3.1 6.9 3.8 273.9 288.0 0.00 0.0000000 67.7
2021-09-20 21:55:00 58.9 19.5 17.3 58.9 58.9 3.0 6.0 3.7 290.2 290.2 0.00 0.0000000 67.7
2021-09-20 22:00:00 58.7 20.7 18.5 58.7 58.7 3.3 5.5 3.7 262.3 281.2 0.00 0.0000000 67.6
2021-09-20 22:05:00 57.5 21.6 18.6 57.5 57.5 3.1 4.7 2.8 240.0 257.6 0.00 0.0000000 67.5
2021-09-20 22:10:00 55.0 22.7 17.5 55.0 55.0 3.1 3.5 2.9 226.6 226.0 0.00 0.0000000 67.5
2021-09-20 22:15:00 54.7 23.8 18.4 54.7 54.7 2.8 3.7 2.7 224.8 221.2 0.00 0.0000000 67.4
2021-09-20 22:20:00 54.7 26.1 20.5 54.7 54.7 1.3 3.1 2.4 156.9 219.1 0.00 0.0000000 67.3
2021-09-20 22:25:00 53.4 26.3 19.6 53.4 53.4 1.5 2.4 1.9 186.7 170.3 0.00 0.0000000 67.2
2021-09-20 22:30:00 52.5 27.4 19.8 52.5 52.5 2.6 2.6 2.3 210.6 200.8 0.00 0.0000000 67.2
2021-09-20 22:35:00 52.6 27.0 19.5 52.6 52.6 1.7 2.6 2.2 190.9 205.9 0.00 0.0000000 67.1
2021-09-20 22:40:00 52.9 26.6 19.5 52.9 52.9 1.9 2.6 1.9 243.7 218.8 0.00 0.0000000 67.0
2021-09-20 22:45:00 52.5 28.1 20.4 52.5 52.5 0.0 1.9 0.5 232.3 238.9 0.00 0.0000000 67.0
2021-09-20 22:50:00 52.3 30.4 22.0 52.3 52.3 1.3 2.1 1.3 220.0 200.9 0.00 0.0000000 66.9
2021-09-20 22:55:00 52.0 33.7 24.2 52.0 52.0 2.6 2.6 1.7 160.7 167.8 0.00 0.0000000 66.8
2021-09-20 23:00:00 51.4 38.9 27.2 51.4 51.4 3.1 3.1 2.6 146.1 163.2 0.00 0.0000000 66.8
2021-09-20 23:05:00 49.8 37.4 24.8 49.8 49.8 2.8 3.7 3.0 141.1 142.3 0.00 0.0000000 66.7
2021-09-20 23:10:00 49.2 38.4 24.9 49.2 49.2 1.3 3.0 2.3 122.5 130.6 0.00 0.0000000 66.6
2021-09-20 23:15:00 48.0 36.4 22.6 48.0 48.0 0.8 2.1 1.4 38.6 75.3 0.00 0.0000000 66.5
2021-09-20 23:20:00 48.3 35.2 22.0 48.3 48.3 1.3 1.5 0.6 132.6 99.1 0.00 0.0000000 66.4
2021-09-20 23:25:00 48.9 33.7 21.5 48.9 48.9 2.2 2.2 1.5 163.4 150.7 0.00 0.0000000 66.4
2021-09-20 23:30:00 49.0 39.8 25.6 49.0 49.0 2.8 3.0 2.5 163.2 156.0 0.00 0.0000000 66.3
2021-09-20 23:35:00 48.4 36.7 23.1 48.4 48.4 2.4 2.6 2.2 154.9 149.1 0.00 0.0000000 66.2
2021-09-20 23:40:00 48.5 40.0 25.2 48.5 48.5 2.4 3.5 2.9 146.4 142.0 0.00 0.0000000 66.1

Data is courtesy of the NM Climate Center. DO NOT USE IN LEGAL PROCEEDINGS.